createdAt,value
2019-04-09T00:02:20.199Z,13.60
2019-04-09T00:04:49.917Z,13.60
2019-04-09T00:07:18.840Z,13.70
2019-04-09T00:09:48.339Z,13.60
2019-04-09T00:12:17.683Z,13.60
2019-04-09T00:14:47.103Z,13.60
2019-04-09T00:17:17.395Z,13.50
2019-04-09T00:19:47.807Z,13.50
2019-04-09T00:22:17.240Z,13.40
2019-04-09T00:25:06.163Z,13.40
2019-04-09T00:31:04.978Z,13.30
2019-04-09T00:39:41.974Z,13.20
2019-04-09T00:51:13.265Z,13.10
2019-04-09T00:54:01.552Z,13.00
2019-04-09T00:56:57.992Z,13.00
2019-04-09T00:59:40.110Z,13.00
2019-04-09T01:05:35.961Z,13.00
2019-04-09T01:08:24.354Z,13.00
2019-04-09T01:11:05.367Z,13.00
2019-04-09T01:13:46.892Z,12.90
2019-04-09T01:16:27.872Z,12.90
2019-04-09T01:19:16.198Z,13.00
2019-04-09T01:21:51.957Z,13.00
2019-04-09T01:24:38.567Z,13.00
2019-04-09T01:27:24.431Z,13.00
2019-04-09T01:30:24.355Z,13.10
2019-04-09T01:33:24.674Z,13.10
2019-04-09T01:36:25.449Z,13.10
2019-04-09T01:45:27.641Z,13.00
2019-04-09T01:54:44.101Z,12.90
2019-04-09T01:57:44.476Z,12.90
2019-04-09T02:00:44.750Z,12.80
2019-04-09T02:03:45.220Z,12.80
2019-04-09T02:06:45.454Z,12.70
2019-04-09T02:12:48.063Z,12.50
2019-04-09T02:15:37.182Z,12.50
2019-04-09T02:18:27.640Z,12.30
2019-04-09T02:21:18.830Z,12.30
2019-04-09T02:27:38.493Z,12.20
2019-04-09T02:30:37.354Z,12.10
2019-04-09T02:33:46.151Z,12.10
2019-04-09T02:36:55.205Z,12.00
2019-04-09T02:40:03.228Z,11.90
2019-04-09T02:43:12.431Z,11.80
2019-04-09T02:46:20.343Z,11.70
2019-04-09T02:49:28.671Z,11.60
2019-04-09T02:52:36.732Z,11.60
2019-04-09T02:58:29.598Z,11.50
2019-04-09T03:01:36.996Z,11.50
2019-04-09T03:07:37.567Z,11.50
2019-04-09T03:10:45.551Z,11.50
2019-04-09T03:13:37.522Z,11.50
2019-04-09T03:16:42.840Z,11.40
2019-04-09T03:19:43.296Z,11.50
2019-04-09T03:25:42.723Z,11.50
2019-04-09T03:28:42.889Z,11.50
2019-04-09T03:31:43.413Z,11.60
2019-04-09T03:34:47.857Z,11.60
2019-04-09T03:37:47.589Z,11.60
2019-04-09T03:43:48.414Z,11.70
2019-04-09T03:46:49.400Z,11.80
2019-04-09T03:52:46.258Z,11.80
2019-04-09T03:58:51.858Z,11.80
2019-04-09T04:01:59.528Z,11.80
2019-04-09T04:05:00.926Z,11.90
2019-04-09T04:11:04.986Z,11.80
2019-04-09T04:20:23.150Z,11.70
2019-04-09T04:23:22.848Z,11.70
2019-04-09T04:26:24.591Z,11.60
2019-04-09T04:29:25.430Z,11.60
2019-04-09T04:32:13.191Z,11.60
2019-04-09T04:35:17.917Z,11.60
2019-04-09T04:38:20.694Z,11.60
2019-04-09T04:41:14.929Z,11.60
2019-04-09T04:44:14.438Z,11.50
2019-04-09T04:47:13.947Z,11.50
2019-04-09T04:50:15.112Z,11.50
2019-04-09T04:53:18.828Z,11.50
2019-04-09T04:56:20.344Z,11.40
2019-04-09T04:59:20.631Z,11.40
2019-04-09T05:02:20.929Z,11.40
2019-04-09T05:05:20.588Z,11.30
2019-04-09T05:08:21.557Z,11.30
2019-04-09T05:11:21.255Z,11.30
2019-04-09T05:14:10.123Z,11.30
2019-04-09T05:20:31.277Z,11.30
2019-04-09T05:23:38.664Z,11.30
2019-04-09T05:26:46.381Z,11.30
2019-04-09T05:29:54.125Z,11.30
2019-04-09T05:33:02.101Z,11.40
2019-04-09T05:35:59.295Z,11.40
2019-04-09T05:39:09.161Z,11.50
2019-04-09T05:42:17.207Z,11.60
2019-04-09T05:45:25.613Z,11.70
2019-04-09T05:48:21.455Z,11.90
2019-04-09T05:51:31.293Z,11.90
2019-04-09T05:54:27.287Z,12.00
2019-04-09T06:00:54.580Z,12.30
2019-04-09T06:04:03.291Z,12.60
2019-04-09T06:13:39.792Z,13.50
2019-04-09T06:16:22.337Z,13.70
2019-04-09T06:19:03.789Z,14.20
2019-04-09T06:21:45.397Z,14.60
2019-04-09T06:24:15.213Z,15.00
2019-04-09T06:26:44.687Z,15.40
2019-04-09T06:29:19.746Z,15.80
2019-04-09T06:31:46.643Z,16.10
2019-04-09T06:34:34.144Z,16.30
2019-04-09T06:37:33.397Z,16.40
2019-04-09T06:40:31.310Z,16.20
2019-04-09T06:43:28.674Z,16.10
2019-04-09T06:46:17.677Z,16.40
2019-04-09T06:49:12.281Z,16.20
2019-04-09T06:52:10.396Z,15.70
2019-04-09T06:55:04.430Z,15.40
2019-04-09T06:58:04.708Z,15.00
2019-04-09T07:00:40.435Z,14.60
2019-04-09T07:03:23.829Z,14.20
2019-04-09T07:06:15.080Z,14.10
2019-04-09T07:09:13.581Z,14.00
2019-04-09T07:12:20.404Z,14.00
2019-04-09T07:14:56.528Z,13.70
2019-04-09T07:17:44.887Z,13.60
2019-04-09T07:20:33.304Z,13.50
2019-04-09T07:23:21.784Z,13.50
2019-04-09T07:26:14.895Z,13.60
2019-04-09T07:29:03.727Z,13.60
2019-04-09T07:31:48.969Z,13.60
2019-04-09T07:34:38.745Z,13.70
2019-04-09T07:37:32.539Z,13.70
2019-04-09T07:40:14.326Z,13.90
2019-04-09T07:43:23.978Z,14.10
2019-04-09T07:46:15.074Z,14.30
2019-04-09T07:48:58.477Z,14.50
2019-04-09T07:51:48.194Z,14.80
2019-04-09T07:54:43.482Z,15.10
2019-04-09T07:57:33.103Z,15.40
2019-04-09T08:00:22.593Z,15.80
2019-04-09T08:03:04.966Z,16.20
2019-04-09T08:06:02.845Z,16.60
2019-04-09T08:08:50.736Z,17.20
2019-04-09T08:11:48.618Z,18.20
2019-04-09T08:14:49.588Z,19.00
2019-04-09T08:17:39.744Z,19.60
2019-04-09T08:20:25.844Z,20.20
2019-04-09T08:23:18.252Z,20.40
2019-04-09T08:26:05.301Z,20.60
2019-04-09T08:28:55.015Z,20.90
2019-04-09T08:31:54.575Z,20.90
2019-04-09T08:34:36.213Z,21.00
2019-04-09T08:37:32.526Z,21.20
2019-04-09T08:40:36.305Z,21.40
2019-04-09T08:43:37.319Z,21.10
2019-04-09T08:46:32.713Z,21.00
2019-04-09T08:49:12.999Z,21.20
2019-04-09T08:52:02.179Z,21.10
2019-04-09T08:54:54.180Z,21.00
2019-04-09T08:57:34.248Z,21.00
2019-04-09T09:00:58.763Z,21.10
2019-04-09T09:03:22.197Z,21.40
2019-04-09T09:06:02.475Z,21.90
2019-04-09T09:08:46.332Z,22.10
2019-04-09T09:11:40.825Z,21.70
2019-04-09T09:14:26.603Z,21.40
2019-04-09T09:17:25.248Z,21.30
2019-04-09T09:20:16.627Z,21.20
2019-04-09T09:23:09.198Z,21.30
2019-04-09T09:25:49.543Z,21.60
2019-04-09T09:28:38.944Z,21.70
2019-04-09T09:31:42.828Z,21.90
2019-04-09T09:34:35.094Z,22.10
2019-04-09T09:37:23.393Z,22.30
2019-04-09T09:40:17.951Z,22.30
2019-04-09T09:43:01.441Z,22.00
2019-04-09T09:45:39.881Z,21.60
2019-04-09T09:48:31.521Z,21.50
2019-04-09T09:51:35.117Z,21.70
2019-04-09T09:54:39.532Z,21.80
2019-04-09T09:57:40.574Z,21.60
2019-04-09T10:00:24.098Z,21.80
2019-04-09T10:03:25.678Z,22.30
2019-04-09T10:06:17.757Z,22.40
2019-04-09T10:09:03.506Z,22.30
2019-04-09T10:11:55.564Z,23.20
2019-04-09T10:14:54.412Z,23.80
2019-04-09T10:17:34.633Z,23.70
2019-04-09T10:20:34.113Z,23.90
2019-04-09T10:23:31.029Z,24.20
2019-04-09T10:26:27.327Z,23.70
2019-04-09T10:29:19.679Z,23.40
2019-04-09T10:32:11.539Z,23.30
2019-04-09T10:35:05.497Z,22.90
2019-04-09T10:38:01.170Z,22.40
2019-04-09T10:40:50.714Z,22.70
2019-04-09T10:43:34.826Z,23.80
2019-04-09T10:46:31.994Z,24.60
2019-04-09T10:49:38.611Z,25.00
2019-04-09T10:52:28.802Z,23.90
2019-04-09T10:55:22.381Z,23.30
2019-04-09T10:58:20.017Z,22.50
2019-04-09T11:01:31.413Z,22.50
2019-04-09T11:03:57.937Z,22.00
2019-04-09T11:06:46.415Z,21.80
2019-04-09T11:09:38.976Z,21.50
2019-04-09T11:12:28.329Z,20.90
2019-04-09T11:15:18.572Z,20.80
2019-04-09T11:18:13.308Z,20.50
2019-04-09T11:20:54.302Z,20.30
2019-04-09T11:23:41.491Z,20.40
2019-04-09T11:26:30.905Z,20.20
2019-04-09T11:29:12.223Z,20.30
2019-04-09T11:32:06.361Z,20.20
2019-04-09T11:34:48.473Z,20.40
2019-04-09T11:37:35.338Z,20.00
2019-04-09T11:40:16.868Z,19.50
2019-04-09T11:43:08.046Z,19.40
2019-04-09T11:45:56.569Z,19.40
2019-04-09T11:49:03.126Z,19.30
2019-04-09T11:52:06.534Z,19.30
2019-04-09T11:54:54.563Z,19.20
2019-04-09T11:57:59.203Z,19.10
2019-04-09T12:00:56.668Z,19.40
2019-04-09T12:03:39.078Z,19.30
2019-04-09T12:06:18.426Z,19.20
2019-04-09T12:08:55.063Z,19.10
2019-04-09T12:12:01.788Z,19.20
2019-04-09T12:14:50.161Z,19.30
2019-04-09T12:17:39.507Z,19.70
2019-04-09T12:20:32.528Z,19.90
2019-04-09T12:23:24.541Z,19.90
2019-04-09T12:26:32.778Z,19.80
2019-04-09T12:29:40.168Z,19.70
2019-04-09T12:32:48.112Z,19.80
2019-04-09T12:35:56.566Z,20.10
2019-04-09T12:39:04.110Z,20.10
2019-04-09T12:45:26.812Z,19.80
2019-04-09T12:48:34.790Z,19.30
2019-04-09T12:51:42.954Z,19.00
2019-04-09T12:58:06.822Z,18.90
2019-04-09T13:01:14.319Z,18.70
2019-04-09T13:04:21.866Z,18.60
2019-04-09T13:10:33.784Z,18.80
2019-04-09T13:13:42.615Z,18.90
2019-04-09T13:16:43.340Z,18.90
2019-04-09T13:19:46.085Z,18.80
2019-04-09T13:22:45.573Z,18.60
2019-04-09T13:28:50.253Z,18.40
2019-04-09T13:34:57.602Z,18.40
2019-04-09T13:38:02.074Z,18.40
2019-04-09T13:40:54.245Z,18.40
2019-04-09T13:43:54.515Z,18.40
2019-04-09T13:46:44.702Z,18.50
2019-04-09T13:52:36.828Z,18.50
2019-04-09T13:55:18.297Z,18.40
2019-04-09T13:58:00.253Z,18.50
2019-04-09T14:00:41.915Z,18.50
2019-04-09T14:03:34.103Z,18.70
2019-04-09T14:06:10.844Z,18.70
2019-04-09T14:08:53.112Z,18.80
2019-04-09T14:11:34.514Z,18.70
2019-04-09T14:14:16.422Z,18.40
2019-04-09T14:16:57.859Z,18.30
2019-04-09T14:19:49.266Z,18.30
2019-04-09T14:22:22.376Z,18.40
2019-04-09T14:25:03.360Z,18.50
2019-04-09T14:27:44.020Z,18.50
2019-04-09T14:30:24.708Z,18.40
2019-04-09T14:33:09.625Z,18.20
2019-04-09T14:35:47.943Z,18.30
2019-04-09T14:38:30.099Z,18.40
2019-04-09T14:41:11.088Z,18.30
2019-04-09T14:43:52.166Z,18.30
2019-04-09T14:46:33.474Z,18.30
2019-04-09T14:49:15.748Z,18.30
2019-04-09T14:51:58.147Z,18.20
2019-04-09T14:54:39.687Z,18.00
2019-04-09T14:57:20.739Z,18.10
2019-04-09T15:00:04.004Z,18.10
2019-04-09T15:02:44.785Z,18.20
2019-04-09T15:05:26.483Z,18.20
2019-04-09T15:08:08.712Z,18.20
2019-04-09T15:10:49.501Z,18.20
2019-04-09T15:13:30.214Z,18.20
2019-04-09T15:16:11.861Z,18.40
2019-04-09T15:18:53.388Z,18.40
2019-04-09T15:24:33.208Z,18.00
2019-04-09T15:27:13.945Z,17.90
2019-04-09T15:29:55.171Z,17.90
2019-04-09T15:32:37.880Z,17.90
2019-04-09T15:35:19.258Z,17.90
2019-04-09T15:38:00.764Z,17.70
2019-04-09T15:40:42.059Z,17.50
2019-04-09T15:43:24.203Z,17.40
2019-04-09T15:46:06.544Z,17.40
2019-04-09T15:48:47.340Z,17.30
2019-04-09T15:51:27.996Z,17.30
2019-04-09T15:54:09.517Z,17.30
2019-04-09T15:56:51.018Z,17.00
2019-04-09T15:59:32.248Z,16.90
2019-04-09T16:02:14.210Z,16.80
2019-04-09T16:04:56.665Z,16.70
2019-04-09T16:07:38.357Z,16.70
2019-04-09T16:10:22.157Z,16.70
2019-04-09T16:13:02.127Z,16.60
2019-04-09T16:15:43.671Z,16.60
2019-04-09T16:18:25.218Z,16.60
2019-04-09T16:21:07.382Z,16.40
2019-04-09T16:23:48.476Z,16.40
2019-04-09T16:26:29.720Z,16.30
2019-04-09T16:29:11.100Z,16.30
2019-04-09T16:34:34.500Z,16.20
2019-04-09T16:37:17.554Z,16.40
2019-04-09T16:39:58.908Z,16.40
2019-04-09T16:42:42.239Z,16.30
2019-04-09T16:45:23.452Z,16.20
2019-04-09T16:48:04.331Z,16.20
2019-04-09T16:50:45.983Z,16.30
2019-04-09T16:53:27.081Z,16.10
2019-04-09T16:56:07.707Z,15.90
2019-04-09T16:58:49.295Z,15.80
2019-04-09T17:01:30.034Z,15.70
2019-04-09T17:04:20.570Z,15.70
2019-04-09T17:06:55.373Z,15.80
2019-04-09T17:09:38.714Z,15.80
2019-04-09T17:12:18.702Z,15.80
2019-04-09T17:14:59.934Z,15.70
2019-04-09T17:17:40.946Z,15.60
2019-04-09T17:20:22.337Z,15.40
2019-04-09T17:23:03.394Z,15.30
2019-04-09T17:25:44.939Z,15.10
2019-04-09T17:28:25.828Z,15.10
2019-04-09T17:31:07.358Z,14.90
2019-04-09T17:33:47.983Z,14.80
2019-04-09T17:36:32.002Z,14.80
2019-04-09T17:39:12.665Z,14.70
2019-04-09T17:42:01.651Z,14.60
2019-04-09T17:44:37.397Z,14.50
2019-04-09T17:47:19.515Z,14.40
2019-04-09T17:50:00.451Z,14.30
2019-04-09T17:52:41.220Z,14.30
2019-04-09T17:55:23.203Z,14.30
2019-04-09T17:58:04.661Z,14.20
2019-04-09T18:00:46.030Z,14.20
2019-04-09T18:03:27.540Z,14.20
2019-04-09T18:06:09.064Z,14.00
2019-04-09T18:08:50.753Z,14.00
2019-04-09T18:11:31.971Z,13.80
2019-04-09T18:14:13.368Z,13.70
2019-04-09T18:16:55.152Z,13.60
2019-04-09T18:22:18.987Z,13.40
2019-04-09T18:24:49.374Z,13.40
2019-04-09T18:27:19.201Z,13.30
2019-04-09T18:29:48.796Z,13.20
2019-04-09T18:32:19.025Z,13.20
2019-04-09T18:34:55.261Z,13.20
2019-04-09T18:37:19.862Z,13.10
2019-04-09T18:39:50.021Z,13.10
2019-04-09T18:42:19.671Z,13.10
2019-04-09T18:44:52.695Z,13.00
2019-04-09T18:47:20.417Z,13.00
2019-04-09T18:49:50.511Z,12.90
2019-04-09T18:52:20.078Z,12.90
2019-04-09T18:54:49.495Z,12.90
2019-04-09T18:57:19.739Z,12.90
2019-04-09T18:59:50.864Z,12.90
2019-04-09T19:02:20.738Z,12.80
2019-04-09T19:05:02.752Z,12.80
2019-04-09T19:07:22.100Z,12.80
2019-04-09T19:09:52.613Z,12.80
2019-04-09T19:12:23.253Z,12.70
2019-04-09T19:14:52.650Z,12.70
2019-04-09T19:17:23.169Z,12.70
2019-04-09T19:19:54.553Z,12.70
2019-04-09T19:22:24.984Z,12.70
2019-04-09T19:24:55.582Z,12.70
2019-04-09T19:27:25.751Z,12.70
2019-04-09T19:29:55.356Z,12.70
2019-04-09T19:32:25.239Z,12.70
2019-04-09T19:34:54.848Z,12.60
2019-04-09T19:37:24.238Z,12.70
2019-04-09T19:40:16.132Z,12.60
2019-04-09T19:42:45.968Z,12.50
2019-04-09T19:45:17.048Z,12.50
2019-04-09T19:47:46.598Z,12.50
2019-04-09T19:50:19.410Z,12.40
2019-04-09T19:52:49.005Z,12.40
2019-04-09T19:55:20.129Z,12.40
2019-04-09T19:57:50.374Z,12.30
2019-04-09T20:00:24.204Z,12.20
2019-04-09T20:02:54.746Z,12.20
2019-04-09T20:05:30.161Z,12.20
2019-04-09T20:07:55.534Z,12.20
2019-04-09T20:10:44.577Z,12.20
2019-04-09T20:13:14.517Z,12.20
2019-04-09T20:15:44.286Z,12.20
2019-04-09T20:18:13.801Z,12.10
2019-04-09T20:20:43.240Z,12.20
2019-04-09T20:23:14.029Z,12.20
2019-04-09T20:25:43.958Z,12.10
2019-04-09T20:28:14.057Z,12.10
2019-04-09T20:30:44.010Z,12.00
2019-04-09T20:33:15.038Z,12.00
2019-04-09T20:35:49.857Z,12.00
2019-04-09T20:38:16.546Z,11.90
2019-04-09T20:40:46.138Z,11.90
2019-04-09T20:43:15.529Z,11.90
2019-04-09T20:45:45.207Z,11.90
2019-04-09T20:48:15.250Z,11.80
2019-04-09T20:50:46.108Z,11.80
2019-04-09T20:53:15.944Z,11.80
2019-04-09T20:55:46.401Z,11.70
2019-04-09T20:58:15.989Z,11.80
2019-04-09T21:01:09.219Z,11.70
2019-04-09T21:03:53.581Z,11.70
2019-04-09T21:06:30.798Z,11.70
2019-04-09T21:09:00.423Z,11.70
2019-04-09T21:11:30.595Z,11.60
2019-04-09T21:14:00.684Z,11.60
2019-04-09T21:16:30.988Z,11.60
2019-04-09T21:19:00.443Z,11.60
2019-04-09T21:21:29.787Z,11.50
2019-04-09T21:23:59.349Z,11.50
2019-04-09T21:26:29.686Z,11.50
2019-04-09T21:28:59.898Z,11.40
2019-04-09T21:31:29.582Z,11.40
2019-04-09T21:34:01.363Z,11.40
2019-04-09T21:36:31.111Z,11.30
2019-04-09T21:39:00.657Z,11.30
2019-04-09T21:41:30.538Z,11.30
2019-04-09T21:44:01.093Z,11.30
2019-04-09T21:46:31.489Z,11.20
2019-04-09T21:49:02.055Z,11.20
2019-04-09T21:51:31.525Z,11.20
2019-04-09T21:54:03.539Z,11.20
2019-04-09T21:56:31.946Z,11.10
2019-04-09T21:59:01.786Z,11.10
2019-04-09T22:01:31.725Z,11.00
2019-04-09T22:04:01.211Z,11.00
2019-04-09T22:06:32.502Z,11.00
2019-04-09T22:09:02.651Z,11.00
2019-04-09T22:11:32.091Z,11.00
2019-04-09T22:14:02.456Z,11.00
2019-04-09T22:16:31.842Z,10.90
2019-04-09T22:19:01.968Z,10.90
2019-04-09T22:21:31.569Z,10.80
2019-04-09T22:24:00.989Z,10.80
2019-04-09T22:26:30.332Z,10.80
2019-04-09T22:29:00.877Z,10.80
2019-04-09T22:31:33.153Z,10.70
2019-04-09T22:34:01.716Z,10.70
2019-04-09T22:36:37.596Z,10.70
2019-04-09T22:39:02.752Z,10.60
2019-04-09T22:41:33.297Z,10.60
2019-04-09T22:44:06.788Z,10.60
2019-04-09T22:46:34.236Z,10.50
2019-04-09T22:49:04.577Z,10.50
2019-04-09T22:51:34.922Z,10.50
2019-04-09T22:54:05.154Z,10.50
2019-04-09T22:56:36.134Z,10.40
2019-04-09T22:59:05.952Z,10.40
2019-04-09T23:02:09.992Z,10.40
2019-04-09T23:05:04.705Z,10.30
2019-04-09T23:07:48.559Z,10.30
2019-04-09T23:10:50.320Z,10.20
2019-04-09T23:13:20.596Z,10.20
2019-04-09T23:15:50.017Z,10.10
2019-04-09T23:18:19.440Z,10.10
2019-04-09T23:20:48.816Z,10.10
2019-04-09T23:23:18.597Z,10.00
2019-04-09T23:25:48.842Z,10.00
2019-04-09T23:28:19.134Z,10.00
2019-04-09T23:30:50.398Z,10.00
2019-04-09T23:33:20.611Z,9.90
2019-04-09T23:35:50.120Z,9.90
2019-04-09T23:38:19.445Z,9.80
2019-04-09T23:40:48.924Z,9.80
2019-04-09T23:43:19.454Z,9.70
2019-04-09T23:45:49.032Z,9.60
2019-04-09T23:48:18.413Z,9.60
2019-04-09T23:50:47.823Z,9.60
2019-04-09T23:53:17.170Z,9.60
2019-04-09T23:55:47.119Z,9.60
2019-04-09T23:58:17.357Z,9.50
